sensor_id;sensor_type;location;lat;lon;timestamp;P1;durP1;ratioP1;P2;durP2;ratioP2
80557;SDS011;69901;43.524;-5.636;2024-01-30T00:01:18;52.03;;;39.30;;
80557;SDS011;69901;43.524;-5.636;2024-01-30T00:03:44;70.77;;;53.80;;
80557;SDS011;69901;43.524;-5.636;2024-01-30T00:06:09;52.43;;;39.90;;
80557;SDS011;69901;43.524;-5.636;2024-01-30T00:08:35;49.87;;;37.93;;
80557;SDS011;69901;43.524;-5.636;2024-01-30T00:11:00;39.80;;;29.77;;
80557;SDS011;69901;43.524;-5.636;2024-01-30T00:13:26;32.03;;;21.83;;
80557;SDS011;69901;43.524;-5.636;2024-01-30T00:15:52;24.30;;;17.37;;
80557;SDS011;69901;43.524;-5.636;2024-01-30T00:18:17;23.45;;;17.92;;
80557;SDS011;69901;43.524;-5.636;2024-01-30T00:20:43;21.50;;;15.80;;
80557;SDS011;69901;43.524;-5.636;2024-01-30T00:23:09;23.73;;;17.30;;
80557;SDS011;69901;43.524;-5.636;2024-01-30T00:25:35;28.40;;;20.00;;
80557;SDS011;69901;43.524;-5.636;2024-01-30T00:28:00;32.90;;;22.37;;
80557;SDS011;69901;43.524;-5.636;2024-01-30T00:30:26;58.70;;;46.23;;
80557;SDS011;69901;43.524;-5.636;2024-01-30T00:32:51;62.87;;;45.87;;
80557;SDS011;69901;43.524;-5.636;2024-01-30T00:35:17;35.03;;;25.70;;
80557;SDS011;69901;43.524;-5.636;2024-01-30T00:37:42;28.92;;;22.58;;
80557;SDS011;69901;43.524;-5.636;2024-01-30T00:40:08;33.97;;;23.77;;
80557;SDS011;69901;43.524;-5.636;2024-01-30T00:42:38;43.40;;;33.53;;
80557;SDS011;69901;43.524;-5.636;2024-01-30T00:45:04;36.10;;;26.87;;
80557;SDS011;69901;43.524;-5.636;2024-01-30T00:47:30;32.90;;;24.53;;
80557;SDS011;69901;43.524;-5.636;2024-01-30T00:49:57;28.67;;;20.50;;
80557;SDS011;69901;43.524;-5.636;2024-01-30T00:52:23;28.63;;;18.40;;
80557;SDS011;69901;43.524;-5.636;2024-01-30T00:54:48;26.83;;;20.20;;
80557;SDS011;69901;43.524;-5.636;2024-01-30T00:57:14;27.20;;;20.07;;
80557;SDS011;69901;43.524;-5.636;2024-01-30T00:59:39;25.97;;;19.13;;
80557;SDS011;69901;43.524;-5.636;2024-01-30T01:02:05;27.58;;;18.52;;
80557;SDS011;69901;43.524;-5.636;2024-01-30T01:04:30;25.60;;;18.13;;
80557;SDS011;69901;43.524;-5.636;2024-01-30T01:06:56;25.83;;;19.20;;
80557;SDS011;69901;43.524;-5.636;2024-01-30T01:09:21;27.63;;;17.10;;
80557;SDS011;69901;43.524;-5.636;2024-01-30T01:11:47;24.17;;;17.67;;
80557;SDS011;69901;43.524;-5.636;2024-01-30T01:14:12;23.43;;;17.40;;
80557;SDS011;69901;43.524;-5.636;2024-01-30T01:16:38;25.15;;;18.45;;
80557;SDS011;69901;43.524;-5.636;2024-01-30T01:19:03;23.43;;;16.67;;
80557;SDS011;69901;43.524;-5.636;2024-01-30T01:21:29;25.27;;;17.02;;
80557;SDS011;69901;43.524;-5.636;2024-01-30T01:23:55;25.90;;;17.60;;
80557;SDS011;69901;43.524;-5.636;2024-01-30T01:26:20;26.20;;;17.77;;
80557;SDS011;69901;43.524;-5.636;2024-01-30T01:28:46;21.33;;;16.42;;
80557;SDS011;69901;43.524;-5.636;2024-01-30T01:31:12;21.30;;;15.67;;
80557;SDS011;69901;43.524;-5.636;2024-01-30T01:33:37;23.58;;;15.70;;
80557;SDS011;69901;43.524;-5.636;2024-01-30T01:36:03;24.93;;;18.00;;
80557;SDS011;69901;43.524;-5.636;2024-01-30T01:38:29;25.13;;;17.17;;
80557;SDS011;69901;43.524;-5.636;2024-01-30T01:40:54;24.00;;;16.70;;
80557;SDS011;69901;43.524;-5.636;2024-01-30T01:43:20;23.50;;;16.30;;
80557;SDS011;69901;43.524;-5.636;2024-01-30T01:45:45;24.93;;;16.93;;
80557;SDS011;69901;43.524;-5.636;2024-01-30T01:48:11;23.80;;;16.30;;
80557;SDS011;69901;43.524;-5.636;2024-01-30T01:50:38;26.20;;;16.65;;
80557;SDS011;69901;43.524;-5.636;2024-01-30T01:53:05;21.15;;;15.48;;
80557;SDS011;69901;43.524;-5.636;2024-01-30T01:55:33;25.75;;;16.00;;
80557;SDS011;69901;43.524;-5.636;2024-01-30T01:58:00;20.63;;;15.43;;
80557;SDS011;69901;43.524;-5.636;2024-01-30T02:00:26;22.42;;;14.60;;
80557;SDS011;69901;43.524;-5.636;2024-01-30T02:02:52;20.15;;;15.40;;
80557;SDS011;69901;43.524;-5.636;2024-01-30T02:05:19;21.95;;;15.20;;
80557;SDS011;69901;43.524;-5.636;2024-01-30T02:07:46;18.17;;;14.93;;
80557;SDS011;69901;43.524;-5.636;2024-01-30T02:10:12;19.30;;;14.02;;
80557;SDS011;69901;43.524;-5.636;2024-01-30T02:12:38;27.10;;;15.07;;
80557;SDS011;69901;43.524;-5.636;2024-01-30T02:15:03;21.37;;;15.40;;
80557;SDS011;69901;43.524;-5.636;2024-01-30T02:17:30;20.52;;;15.43;;
80557;SDS011;69901;43.524;-5.636;2024-01-30T02:19:56;17.85;;;14.10;;
80557;SDS011;69901;43.524;-5.636;2024-01-30T02:22:21;18.17;;;14.27;;
80557;SDS011;69901;43.524;-5.636;2024-01-30T02:24:47;20.73;;;15.52;;
80557;SDS011;69901;43.524;-5.636;2024-01-30T02:27:13;16.63;;;13.60;;
80557;SDS011;69901;43.524;-5.636;2024-01-30T02:29:38;17.57;;;14.30;;
80557;SDS011;69901;43.524;-5.636;2024-01-30T02:32:04;17.70;;;14.45;;
80557;SDS011;69901;43.524;-5.636;2024-01-30T02:34:30;19.83;;;13.73;;
80557;SDS011;69901;43.524;-5.636;2024-01-30T02:36:56;18.67;;;13.52;;
80557;SDS011;69901;43.524;-5.636;2024-01-30T02:39:21;21.17;;;14.00;;
80557;SDS011;69901;43.524;-5.636;2024-01-30T02:41:47;20.37;;;14.17;;
80557;SDS011;69901;43.524;-5.636;2024-01-30T02:44:12;19.23;;;13.43;;
80557;SDS011;69901;43.524;-5.636;2024-01-30T02:46:38;17.55;;;13.30;;
80557;SDS011;69901;43.524;-5.636;2024-01-30T02:49:03;16.77;;;14.03;;
80557;SDS011;69901;43.524;-5.636;2024-01-30T02:51:29;23.83;;;15.17;;
80557;SDS011;69901;43.524;-5.636;2024-01-30T02:53:54;19.87;;;14.13;;
80557;SDS011;69901;43.524;-5.636;2024-01-30T02:56:20;21.40;;;14.57;;
80557;SDS011;69901;43.524;-5.636;2024-01-30T02:58:45;20.67;;;13.37;;
80557;SDS011;69901;43.524;-5.636;2024-01-30T03:01:10;18.30;;;14.07;;
80557;SDS011;69901;43.524;-5.636;2024-01-30T03:03:36;20.35;;;14.80;;
80557;SDS011;69901;43.524;-5.636;2024-01-30T03:06:01;19.43;;;12.90;;
80557;SDS011;69901;43.524;-5.636;2024-01-30T03:08:27;16.53;;;13.97;;
80557;SDS011;69901;43.524;-5.636;2024-01-30T03:10:53;17.80;;;13.70;;
80557;SDS011;69901;43.524;-5.636;2024-01-30T03:13:19;21.53;;;13.77;;
80557;SDS011;69901;43.524;-5.636;2024-01-30T03:15:44;21.48;;;14.38;;
80557;SDS011;69901;43.524;-5.636;2024-01-30T03:18:10;22.17;;;14.13;;
80557;SDS011;69901;43.524;-5.636;2024-01-30T03:20:35;20.27;;;14.60;;
80557;SDS011;69901;43.524;-5.636;2024-01-30T03:23:01;20.17;;;13.73;;
80557;SDS011;69901;43.524;-5.636;2024-01-30T03:25:26;20.37;;;14.03;;
80557;SDS011;69901;43.524;-5.636;2024-01-30T03:27:52;20.20;;;14.63;;
80557;SDS011;69901;43.524;-5.636;2024-01-30T03:30:17;18.48;;;13.88;;
80557;SDS011;69901;43.524;-5.636;2024-01-30T03:32:43;24.03;;;13.80;;
80557;SDS011;69901;43.524;-5.636;2024-01-30T03:35:09;17.15;;;13.90;;
80557;SDS011;69901;43.524;-5.636;2024-01-30T03:37:34;23.13;;;14.23;;
80557;SDS011;69901;43.524;-5.636;2024-01-30T03:40:00;19.60;;;13.93;;
80557;SDS011;69901;43.524;-5.636;2024-01-30T03:42:26;19.50;;;13.20;;
80557;SDS011;69901;43.524;-5.636;2024-01-30T03:44:52;23.08;;;14.32;;
80557;SDS011;69901;43.524;-5.636;2024-01-30T03:47:18;23.23;;;15.27;;
80557;SDS011;69901;43.524;-5.636;2024-01-30T03:49:45;21.97;;;15.60;;
80557;SDS011;69901;43.524;-5.636;2024-01-30T03:52:11;33.88;;;15.48;;
80557;SDS011;69901;43.524;-5.636;2024-01-30T03:54:36;25.97;;;14.83;;
80557;SDS011;69901;43.524;-5.636;2024-01-30T03:57:01;22.10;;;14.43;;
80557;SDS011;69901;43.524;-5.636;2024-01-30T03:59:27;19.48;;;14.77;;
80557;SDS011;69901;43.524;-5.636;2024-01-30T04:01:52;23.83;;;13.93;;
80557;SDS011;69901;43.524;-5.636;2024-01-30T04:04:18;22.63;;;14.53;;
80557;SDS011;69901;43.524;-5.636;2024-01-30T04:06:44;19.35;;;14.30;;
80557;SDS011;69901;43.524;-5.636;2024-01-30T04:09:10;24.23;;;14.10;;
80557;SDS011;69901;43.524;-5.636;2024-01-30T04:11:36;18.90;;;14.17;;
80557;SDS011;69901;43.524;-5.636;2024-01-30T04:14:02;23.73;;;13.93;;
80557;SDS011;69901;43.524;-5.636;2024-01-30T04:16:27;22.40;;;14.63;;
80557;SDS011;69901;43.524;-5.636;2024-01-30T04:18:53;23.30;;;14.45;;
80557;SDS011;69901;43.524;-5.636;2024-01-30T04:21:20;26.53;;;14.40;;
80557;SDS011;69901;43.524;-5.636;2024-01-30T04:23:46;22.75;;;14.80;;
80557;SDS011;69901;43.524;-5.636;2024-01-30T04:26:13;22.38;;;14.73;;
80557;SDS011;69901;43.524;-5.636;2024-01-30T04:28:40;22.52;;;14.43;;
80557;SDS011;69901;43.524;-5.636;2024-01-30T04:31:06;20.67;;;14.33;;
80557;SDS011;69901;43.524;-5.636;2024-01-30T04:33:32;24.38;;;14.02;;
80557;SDS011;69901;43.524;-5.636;2024-01-30T04:35:57;19.37;;;14.47;;
80557;SDS011;69901;43.524;-5.636;2024-01-30T04:38:23;19.97;;;13.90;;
80557;SDS011;69901;43.524;-5.636;2024-01-30T04:40:48;19.63;;;14.30;;
80557;SDS011;69901;43.524;-5.636;2024-01-30T04:43:14;19.27;;;13.50;;
80557;SDS011;69901;43.524;-5.636;2024-01-30T04:45:40;19.60;;;14.43;;
80557;SDS011;69901;43.524;-5.636;2024-01-30T04:48:06;19.40;;;14.43;;
80557;SDS011;69901;43.524;-5.636;2024-01-30T04:50:32;16.80;;;14.18;;
80557;SDS011;69901;43.524;-5.636;2024-01-30T04:52:57;20.73;;;14.53;;
80557;SDS011;69901;43.524;-5.636;2024-01-30T04:55:23;20.83;;;13.33;;
80557;SDS011;69901;43.524;-5.636;2024-01-30T04:57:49;21.80;;;13.45;;
80557;SDS011;69901;43.524;-5.636;2024-01-30T05:00:14;22.40;;;15.00;;
80557;SDS011;69901;43.524;-5.636;2024-01-30T05:02:40;25.25;;;16.30;;
80557;SDS011;69901;43.524;-5.636;2024-01-30T05:05:06;22.60;;;15.23;;
80557;SDS011;69901;43.524;-5.636;2024-01-30T05:07:32;19.38;;;14.88;;
80557;SDS011;69901;43.524;-5.636;2024-01-30T05:09:57;22.53;;;15.33;;
80557;SDS011;69901;43.524;-5.636;2024-01-30T05:12:23;19.33;;;15.17;;
80557;SDS011;69901;43.524;-5.636;2024-01-30T05:14:50;25.17;;;14.80;;
80557;SDS011;69901;43.524;-5.636;2024-01-30T05:17:15;19.30;;;14.75;;
80557;SDS011;69901;43.524;-5.636;2024-01-30T05:19:42;26.93;;;15.80;;
80557;SDS011;69901;43.524;-5.636;2024-01-30T05:22:08;19.67;;;14.15;;
80557;SDS011;69901;43.524;-5.636;2024-01-30T05:24:34;24.25;;;15.55;;
80557;SDS011;69901;43.524;-5.636;2024-01-30T05:26:59;20.43;;;14.00;;
80557;SDS011;69901;43.524;-5.636;2024-01-30T05:29:25;21.70;;;14.13;;
80557;SDS011;69901;43.524;-5.636;2024-01-30T05:31:52;20.70;;;14.75;;
80557;SDS011;69901;43.524;-5.636;2024-01-30T05:34:17;22.33;;;14.63;;
80557;SDS011;69901;43.524;-5.636;2024-01-30T05:36:43;23.02;;;15.38;;
80557;SDS011;69901;43.524;-5.636;2024-01-30T05:39:08;24.47;;;14.80;;
80557;SDS011;69901;43.524;-5.636;2024-01-30T05:41:35;25.35;;;15.35;;
80557;SDS011;69901;43.524;-5.636;2024-01-30T05:44:00;24.00;;;14.70;;
80557;SDS011;69901;43.524;-5.636;2024-01-30T05:46:26;24.75;;;15.65;;
80557;SDS011;69901;43.524;-5.636;2024-01-30T05:48:52;21.27;;;15.67;;
80557;SDS011;69901;43.524;-5.636;2024-01-30T05:51:17;26.37;;;15.37;;
80557;SDS011;69901;43.524;-5.636;2024-01-30T05:53:42;17.77;;;13.73;;
80557;SDS011;69901;43.524;-5.636;2024-01-30T05:56:08;17.37;;;14.67;;
80557;SDS011;69901;43.524;-5.636;2024-01-30T05:58:33;27.50;;;16.03;;
80557;SDS011;69901;43.524;-5.636;2024-01-30T06:00:59;20.37;;;15.37;;
80557;SDS011;69901;43.524;-5.636;2024-01-30T06:03:24;20.33;;;15.13;;
80557;SDS011;69901;43.524;-5.636;2024-01-30T06:05:50;25.90;;;15.40;;
80557;SDS011;69901;43.524;-5.636;2024-01-30T06:08:15;22.27;;;15.60;;
80557;SDS011;69901;43.524;-5.636;2024-01-30T06:10:41;19.55;;;15.85;;
80557;SDS011;69901;43.524;-5.636;2024-01-30T06:13:06;19.33;;;15.73;;
80557;SDS011;69901;43.524;-5.636;2024-01-30T06:15:32;21.57;;;15.67;;
80557;SDS011;69901;43.524;-5.636;2024-01-30T06:17:58;21.08;;;14.98;;
80557;SDS011;69901;43.524;-5.636;2024-01-30T06:20:24;22.77;;;14.83;;
80557;SDS011;69901;43.524;-5.636;2024-01-30T06:22:49;22.55;;;14.70;;
80557;SDS011;69901;43.524;-5.636;2024-01-30T06:25:15;25.50;;;15.20;;
80557;SDS011;69901;43.524;-5.636;2024-01-30T06:27:41;24.52;;;16.63;;
80557;SDS011;69901;43.524;-5.636;2024-01-30T06:30:07;21.20;;;15.23;;
80557;SDS011;69901;43.524;-5.636;2024-01-30T06:32:34;20.80;;;15.70;;
80557;SDS011;69901;43.524;-5.636;2024-01-30T06:35:01;27.05;;;15.82;;
80557;SDS011;69901;43.524;-5.636;2024-01-30T06:37:27;22.55;;;15.90;;
80557;SDS011;69901;43.524;-5.636;2024-01-30T06:39:52;19.17;;;15.20;;
80557;SDS011;69901;43.524;-5.636;2024-01-30T06:42:21;20.17;;;14.90;;
80557;SDS011;69901;43.524;-5.636;2024-01-30T06:44:46;18.63;;;14.93;;
80557;SDS011;69901;43.524;-5.636;2024-01-30T06:47:11;19.92;;;14.80;;
80557;SDS011;69901;43.524;-5.636;2024-01-30T06:49:37;23.20;;;15.97;;
80557;SDS011;69901;43.524;-5.636;2024-01-30T06:52:07;21.35;;;15.02;;
80557;SDS011;69901;43.524;-5.636;2024-01-30T06:54:33;21.45;;;14.95;;
80557;SDS011;69901;43.524;-5.636;2024-01-30T06:56:59;26.97;;;15.60;;
80557;SDS011;69901;43.524;-5.636;2024-01-30T06:59:25;21.33;;;15.25;;
80557;SDS011;69901;43.524;-5.636;2024-01-30T07:01:50;25.48;;;14.63;;
80557;SDS011;69901;43.524;-5.636;2024-01-30T07:04:16;20.43;;;14.60;;
80557;SDS011;69901;43.524;-5.636;2024-01-30T07:06:43;21.15;;;15.05;;
80557;SDS011;69901;43.524;-5.636;2024-01-30T07:09:08;23.47;;;14.17;;
80557;SDS011;69901;43.524;-5.636;2024-01-30T07:11:34;22.63;;;15.02;;
80557;SDS011;69901;43.524;-5.636;2024-01-30T07:13:59;20.80;;;14.90;;
80557;SDS011;69901;43.524;-5.636;2024-01-30T07:16:25;18.83;;;15.23;;
80557;SDS011;69901;43.524;-5.636;2024-01-30T07:18:51;23.43;;;15.20;;
80557;SDS011;69901;43.524;-5.636;2024-01-30T07:21:16;22.27;;;14.27;;
80557;SDS011;69901;43.524;-5.636;2024-01-30T07:23:42;24.83;;;15.20;;
80557;SDS011;69901;43.524;-5.636;2024-01-30T07:26:08;20.02;;;14.68;;
80557;SDS011;69901;43.524;-5.636;2024-01-30T07:28:34;21.33;;;15.77;;
80557;SDS011;69901;43.524;-5.636;2024-01-30T07:31:00;23.67;;;15.02;;
80557;SDS011;69901;43.524;-5.636;2024-01-30T07:33:26;19.50;;;15.20;;
80557;SDS011;69901;43.524;-5.636;2024-01-30T07:35:52;23.67;;;15.30;;
80557;SDS011;69901;43.524;-5.636;2024-01-30T07:38:18;19.90;;;15.30;;
80557;SDS011;69901;43.524;-5.636;2024-01-30T07:40:44;23.00;;;15.68;;
80557;SDS011;69901;43.524;-5.636;2024-01-30T07:43:09;24.03;;;15.80;;
80557;SDS011;69901;43.524;-5.636;2024-01-30T07:45:35;25.02;;;15.48;;
80557;SDS011;69901;43.524;-5.636;2024-01-30T07:48:02;21.33;;;15.73;;
80557;SDS011;69901;43.524;-5.636;2024-01-30T07:50:28;19.87;;;14.50;;
80557;SDS011;69901;43.524;-5.636;2024-01-30T07:52:55;27.80;;;17.00;;
80557;SDS011;69901;43.524;-5.636;2024-01-30T07:55:21;26.55;;;15.63;;
80557;SDS011;69901;43.524;-5.636;2024-01-30T07:57:52;23.15;;;15.57;;
80557;SDS011;69901;43.524;-5.636;2024-01-30T08:00:21;26.83;;;16.75;;
80557;SDS011;69901;43.524;-5.636;2024-01-30T08:02:47;27.20;;;17.50;;
80557;SDS011;69901;43.524;-5.636;2024-01-30T08:05:13;22.83;;;16.58;;
80557;SDS011;69901;43.524;-5.636;2024-01-30T08:07:41;24.10;;;16.48;;
80557;SDS011;69901;43.524;-5.636;2024-01-30T08:10:07;24.58;;;17.58;;
80557;SDS011;69901;43.524;-5.636;2024-01-30T08:12:33;22.30;;;16.03;;
80557;SDS011;69901;43.524;-5.636;2024-01-30T08:14:59;26.02;;;17.30;;
80557;SDS011;69901;43.524;-5.636;2024-01-30T08:17:24;25.33;;;15.53;;
80557;SDS011;69901;43.524;-5.636;2024-01-30T08:19:50;31.80;;;15.80;;
80557;SDS011;69901;43.524;-5.636;2024-01-30T08:22:15;23.80;;;16.10;;
80557;SDS011;69901;43.524;-5.636;2024-01-30T08:24:41;22.50;;;15.93;;
80557;SDS011;69901;43.524;-5.636;2024-01-30T08:27:07;22.13;;;15.77;;
80557;SDS011;69901;43.524;-5.636;2024-01-30T08:29:34;28.77;;;15.90;;
80557;SDS011;69901;43.524;-5.636;2024-01-30T08:32:00;27.50;;;16.90;;
80557;SDS011;69901;43.524;-5.636;2024-01-30T08:34:26;21.65;;;15.55;;
80557;SDS011;69901;43.524;-5.636;2024-01-30T08:36:52;25.47;;;16.00;;
80557;SDS011;69901;43.524;-5.636;2024-01-30T08:39:17;21.47;;;14.60;;
80557;SDS011;69901;43.524;-5.636;2024-01-30T08:41:43;28.67;;;17.10;;
80557;SDS011;69901;43.524;-5.636;2024-01-30T08:44:09;21.87;;;14.40;;
80557;SDS011;69901;43.524;-5.636;2024-01-30T08:46:36;20.10;;;15.57;;
80557;SDS011;69901;43.524;-5.636;2024-01-30T08:49:01;23.45;;;15.20;;
80557;SDS011;69901;43.524;-5.636;2024-01-30T08:51:29;20.87;;;14.93;;
80557;SDS011;69901;43.524;-5.636;2024-01-30T08:53:54;25.35;;;16.67;;
80557;SDS011;69901;43.524;-5.636;2024-01-30T08:56:20;22.67;;;15.27;;
80557;SDS011;69901;43.524;-5.636;2024-01-30T08:58:46;23.60;;;15.77;;
80557;SDS011;69901;43.524;-5.636;2024-01-30T09:01:11;23.50;;;16.67;;
80557;SDS011;69901;43.524;-5.636;2024-01-30T09:03:37;21.90;;;17.05;;
80557;SDS011;69901;43.524;-5.636;2024-01-30T09:06:08;20.43;;;16.20;;
80557;SDS011;69901;43.524;-5.636;2024-01-30T09:08:34;23.70;;;15.65;;
80557;SDS011;69901;43.524;-5.636;2024-01-30T09:10:59;26.02;;;16.77;;
80557;SDS011;69901;43.524;-5.636;2024-01-30T09:13:25;21.70;;;16.80;;
80557;SDS011;69901;43.524;-5.636;2024-01-30T09:15:50;22.80;;;17.47;;
80557;SDS011;69901;43.524;-5.636;2024-01-30T09:18:15;20.97;;;17.23;;
80557;SDS011;69901;43.524;-5.636;2024-01-30T09:20:41;23.40;;;18.05;;
80557;SDS011;69901;43.524;-5.636;2024-01-30T09:23:07;27.47;;;18.50;;
80557;SDS011;69901;43.524;-5.636;2024-01-30T09:25:33;26.65;;;19.98;;
80557;SDS011;69901;43.524;-5.636;2024-01-30T09:27:59;24.03;;;18.37;;
80557;SDS011;69901;43.524;-5.636;2024-01-30T09:30:24;23.20;;;18.35;;
80557;SDS011;69901;43.524;-5.636;2024-01-30T09:32:50;25.73;;;19.33;;
80557;SDS011;69901;43.524;-5.636;2024-01-30T09:35:16;24.43;;;18.00;;
80557;SDS011;69901;43.524;-5.636;2024-01-30T09:37:41;21.85;;;16.90;;
80557;SDS011;69901;43.524;-5.636;2024-01-30T09:40:07;22.77;;;17.33;;
80557;SDS011;69901;43.524;-5.636;2024-01-30T09:42:33;28.20;;;17.98;;
80557;SDS011;69901;43.524;-5.636;2024-01-30T09:45:03;22.38;;;17.67;;
80557;SDS011;69901;43.524;-5.636;2024-01-30T09:47:38;20.05;;;17.15;;
80557;SDS011;69901;43.524;-5.636;2024-01-30T09:50:09;23.13;;;17.03;;
80557;SDS011;69901;43.524;-5.636;2024-01-30T09:52:36;25.55;;;17.00;;
80557;SDS011;69901;43.524;-5.636;2024-01-30T09:55:02;23.17;;;16.90;;
80557;SDS011;69901;43.524;-5.636;2024-01-30T09:57:28;23.17;;;17.05;;
80557;SDS011;69901;43.524;-5.636;2024-01-30T09:59:53;21.97;;;16.80;;
80557;SDS011;69901;43.524;-5.636;2024-01-30T10:02:19;22.13;;;17.43;;
80557;SDS011;69901;43.524;-5.636;2024-01-30T10:04:49;20.35;;;16.88;;
80557;SDS011;69901;43.524;-5.636;2024-01-30T10:07:16;28.95;;;17.65;;
80557;SDS011;69901;43.524;-5.636;2024-01-30T10:09:42;20.67;;;16.48;;
80557;SDS011;69901;43.524;-5.636;2024-01-30T10:12:11;24.43;;;17.90;;
80557;SDS011;69901;43.524;-5.636;2024-01-30T10:14:41;23.25;;;17.30;;
80557;SDS011;69901;43.524;-5.636;2024-01-30T10:17:07;25.35;;;18.65;;
80557;SDS011;69901;43.524;-5.636;2024-01-30T10:19:34;22.00;;;17.67;;
80557;SDS011;69901;43.524;-5.636;2024-01-30T10:22:00;22.85;;;17.35;;
80557;SDS011;69901;43.524;-5.636;2024-01-30T10:24:26;23.90;;;17.47;;
80557;SDS011;69901;43.524;-5.636;2024-01-30T10:26:53;23.55;;;18.15;;
80557;SDS011;69901;43.524;-5.636;2024-01-30T10:29:18;21.20;;;17.93;;
80557;SDS011;69901;43.524;-5.636;2024-01-30T10:31:44;23.95;;;18.90;;
80557;SDS011;69901;43.524;-5.636;2024-01-30T10:34:09;27.67;;;18.23;;
80557;SDS011;69901;43.524;-5.636;2024-01-30T10:36:39;29.33;;;19.10;;
80557;SDS011;69901;43.524;-5.636;2024-01-30T10:39:08;23.92;;;18.42;;
80557;SDS011;69901;43.524;-5.636;2024-01-30T10:41:37;26.45;;;17.40;;
80557;SDS011;69901;43.524;-5.636;2024-01-30T10:44:13;29.08;;;18.48;;
80557;SDS011;69901;43.524;-5.636;2024-01-30T10:46:46;31.80;;;18.23;;
80557;SDS011;69901;43.524;-5.636;2024-01-30T10:49:21;27.52;;;17.40;;
80557;SDS011;69901;43.524;-5.636;2024-01-30T10:51:48;34.58;;;19.27;;
80557;SDS011;69901;43.524;-5.636;2024-01-30T10:54:16;29.67;;;18.27;;
80557;SDS011;69901;43.524;-5.636;2024-01-30T10:56:43;25.65;;;17.58;;
80557;SDS011;69901;43.524;-5.636;2024-01-30T10:59:09;30.43;;;18.60;;
80557;SDS011;69901;43.524;-5.636;2024-01-30T11:01:38;30.02;;;18.80;;
80557;SDS011;69901;43.524;-5.636;2024-01-30T11:04:04;28.58;;;17.58;;
80557;SDS011;69901;43.524;-5.636;2024-01-30T11:06:30;31.10;;;17.97;;
80557;SDS011;69901;43.524;-5.636;2024-01-30T11:09:02;28.52;;;17.35;;
80557;SDS011;69901;43.524;-5.636;2024-01-30T11:14:25;37.42;;;19.55;;
80557;SDS011;69901;43.524;-5.636;2024-01-30T11:16:51;32.75;;;17.52;;
80557;SDS011;69901;43.524;-5.636;2024-01-30T11:19:23;38.27;;;18.27;;
80557;SDS011;69901;43.524;-5.636;2024-01-30T11:21:53;38.75;;;17.17;;
80557;SDS011;69901;43.524;-5.636;2024-01-30T11:24:20;36.88;;;17.33;;
80557;SDS011;69901;43.524;-5.636;2024-01-30T11:26:58;30.13;;;17.52;;
80557;SDS011;69901;43.524;-5.636;2024-01-30T11:29:27;26.88;;;16.40;;
80557;SDS011;69901;43.524;-5.636;2024-01-30T11:31:54;29.50;;;16.53;;
80557;SDS011;69901;43.524;-5.636;2024-01-30T11:34:21;27.17;;;15.70;;
80557;SDS011;69901;43.524;-5.636;2024-01-30T11:36:53;28.35;;;16.40;;
80557;SDS011;69901;43.524;-5.636;2024-01-30T11:39:25;28.70;;;15.93;;
80557;SDS011;69901;43.524;-5.636;2024-01-30T11:41:54;29.88;;;17.15;;
80557;SDS011;69901;43.524;-5.636;2024-01-30T11:44:20;28.30;;;17.83;;
80557;SDS011;69901;43.524;-5.636;2024-01-30T11:46:47;31.85;;;18.92;;
80557;SDS011;69901;43.524;-5.636;2024-01-30T11:49:16;34.70;;;19.00;;
80557;SDS011;69901;43.524;-5.636;2024-01-30T11:51:47;31.33;;;18.40;;
80557;SDS011;69901;43.524;-5.636;2024-01-30T11:54:17;31.38;;;17.85;;
80557;SDS011;69901;43.524;-5.636;2024-01-30T11:56:43;31.77;;;18.80;;
80557;SDS011;69901;43.524;-5.636;2024-01-30T11:59:09;26.77;;;16.48;;
80557;SDS011;69901;43.524;-5.636;2024-01-30T12:01:34;33.03;;;16.73;;
80557;SDS011;69901;43.524;-5.636;2024-01-30T12:04:00;29.27;;;16.77;;
80557;SDS011;69901;43.524;-5.636;2024-01-30T12:06:26;29.67;;;15.95;;
80557;SDS011;69901;43.524;-5.636;2024-01-30T12:08:59;33.65;;;17.83;;
80557;SDS011;69901;43.524;-5.636;2024-01-30T12:11:25;30.23;;;16.45;;
80557;SDS011;69901;43.524;-5.636;2024-01-30T12:13:52;29.20;;;16.13;;
80557;SDS011;69901;43.524;-5.636;2024-01-30T12:16:18;28.45;;;15.75;;
80557;SDS011;69901;43.524;-5.636;2024-01-30T12:18:44;32.80;;;16.15;;
80557;SDS011;69901;43.524;-5.636;2024-01-30T12:21:10;30.87;;;16.20;;
80557;SDS011;69901;43.524;-5.636;2024-01-30T12:23:35;29.45;;;15.00;;
80557;SDS011;69901;43.524;-5.636;2024-01-30T12:26:01;31.55;;;15.98;;
80557;SDS011;69901;43.524;-5.636;2024-01-30T12:28:32;30.50;;;15.83;;
80557;SDS011;69901;43.524;-5.636;2024-01-30T12:31:01;32.15;;;15.63;;
80557;SDS011;69901;43.524;-5.636;2024-01-30T12:33:28;36.65;;;16.75;;
80557;SDS011;69901;43.524;-5.636;2024-01-30T12:35:55;31.75;;;15.32;;
80557;SDS011;69901;43.524;-5.636;2024-01-30T12:38:21;30.55;;;15.73;;
80557;SDS011;69901;43.524;-5.636;2024-01-30T12:40:47;33.63;;;15.53;;
80557;SDS011;69901;43.524;-5.636;2024-01-30T12:43:15;32.47;;;16.37;;
80557;SDS011;69901;43.524;-5.636;2024-01-30T12:45:41;29.67;;;15.23;;
80557;SDS011;69901;43.524;-5.636;2024-01-30T12:48:08;33.83;;;15.32;;
80557;SDS011;69901;43.524;-5.636;2024-01-30T12:50:33;32.57;;;15.17;;
80557;SDS011;69901;43.524;-5.636;2024-01-30T12:52:59;29.35;;;15.77;;
80557;SDS011;69901;43.524;-5.636;2024-01-30T12:55:25;24.17;;;14.83;;
80557;SDS011;69901;43.524;-5.636;2024-01-30T12:57:53;28.23;;;14.98;;
80557;SDS011;69901;43.524;-5.636;2024-01-30T13:00:19;31.60;;;15.32;;
80557;SDS011;69901;43.524;-5.636;2024-01-30T13:02:45;26.50;;;15.57;;
80557;SDS011;69901;43.524;-5.636;2024-01-30T13:05:12;27.70;;;15.13;;
80557;SDS011;69901;43.524;-5.636;2024-01-30T13:07:37;29.03;;;15.30;;
80557;SDS011;69901;43.524;-5.636;2024-01-30T13:10:03;28.73;;;16.10;;
80557;SDS011;69901;43.524;-5.636;2024-01-30T13:12:29;24.63;;;16.37;;
80557;SDS011;69901;43.524;-5.636;2024-01-30T13:14:57;32.28;;;16.52;;
80557;SDS011;69901;43.524;-5.636;2024-01-30T13:17:22;26.13;;;16.00;;
80557;SDS011;69901;43.524;-5.636;2024-01-30T13:19:48;31.10;;;15.77;;
80557;SDS011;69901;43.524;-5.636;2024-01-30T13:22:16;24.88;;;15.82;;
80557;SDS011;69901;43.524;-5.636;2024-01-30T13:24:42;26.03;;;15.53;;
80557;SDS011;69901;43.524;-5.636;2024-01-30T13:27:08;25.63;;;14.95;;
80557;SDS011;69901;43.524;-5.636;2024-01-30T13:29:33;21.17;;;14.57;;
80557;SDS011;69901;43.524;-5.636;2024-01-30T13:31:59;28.40;;;15.83;;
80557;SDS011;69901;43.524;-5.636;2024-01-30T13:34:25;25.17;;;14.68;;
80557;SDS011;69901;43.524;-5.636;2024-01-30T13:36:51;22.90;;;15.00;;
80557;SDS011;69901;43.524;-5.636;2024-01-30T13:39:17;28.10;;;16.07;;
80557;SDS011;69901;43.524;-5.636;2024-01-30T13:41:42;24.83;;;16.00;;
80557;SDS011;69901;43.524;-5.636;2024-01-30T13:44:08;26.30;;;15.70;;
80557;SDS011;69901;43.524;-5.636;2024-01-30T13:46:34;28.77;;;16.25;;
80557;SDS011;69901;43.524;-5.636;2024-01-30T13:49:00;25.67;;;15.32;;
80557;SDS011;69901;43.524;-5.636;2024-01-30T13:51:25;23.67;;;14.87;;
80557;SDS011;69901;43.524;-5.636;2024-01-30T13:53:51;34.15;;;17.02;;
80557;SDS011;69901;43.524;-5.636;2024-01-30T13:56:17;24.40;;;16.27;;
80557;SDS011;69901;43.524;-5.636;2024-01-30T13:58:42;28.13;;;15.70;;
80557;SDS011;69901;43.524;-5.636;2024-01-30T14:01:08;28.77;;;15.93;;
80557;SDS011;69901;43.524;-5.636;2024-01-30T14:03:35;27.27;;;15.53;;
80557;SDS011;69901;43.524;-5.636;2024-01-30T14:06:00;37.25;;;16.75;;